VOZ488 YBSU-YSSY
Flight info
| Callsign | VOZ488 |
|---|---|
| Flight time | 1h 17m |
| Altitude | 36000 |
| Route | SU Q35 SANEG H91 IGDAM H652 TESAT |
| Aircraft | B738/M-SDE2E3FGHIRWXY/LB1 |
Departure
| Time | 2026-05-04 20:41 |
|---|---|
| Airport | Sunshine Coast Airport (YBSU) |
Arrival
| Time | 2026-05-04 21:58 |
|---|---|
| Airport | Sydney Kingsford Smith International Airport (YSSY) |
| Time | Latitude | Longitude | Altitude | Speed | Heading |
|---|---|---|---|---|---|
| 2026-05-04 20:08 | -26.60565 | 153.08952 | 23 ft | 0 kts | 284° |
| 2026-05-04 20:29 | -26.60569 | 153.08968 | 20 ft | 4 kts | 284° |
| 2026-05-04 20:29 | -26.60576 | 153.08998 | 20 ft | 4 kts | 284° |
| 2026-05-04 20:29 | -26.60581 | 153.09023 | 20 ft | 4 kts | 290° |
| 2026-05-04 20:30 | -26.60596 | 153.09042 | 22 ft | 4 kts | 347° |
| 2026-05-04 20:30 | -26.60622 | 153.09043 | 21 ft | 4 kts | 9° |
| 2026-05-04 20:30 | -26.60638 | 153.09040 | 20 ft | 0 kts | 15° |
| 2026-05-04 20:33 | -26.60632 | 153.09041 | 20 ft | 2 kts | 15° |
| 2026-05-04 20:33 | -26.60600 | 153.09051 | 20 ft | 8 kts | 15° |
| 2026-05-04 20:33 | -26.60540 | 153.09069 | 20 ft | 9 kts | 13° |
| 2026-05-04 20:33 | -26.60470 | 153.09063 | 20 ft | 12 kts | 323° |
| 2026-05-04 20:34 | -26.60390 | 153.08996 | 20 ft | 16 kts | 322° |
| 2026-05-04 20:34 | -26.60290 | 153.08909 | 20 ft | 20 kts | 322° |
| 2026-05-04 20:34 | -26.60176 | 153.08812 | 20 ft | 21 kts | 322° |
| 2026-05-04 20:34 | -26.60060 | 153.08713 | 22 ft | 21 kts | 323° |
| 2026-05-04 20:35 | -26.59948 | 153.08617 | 21 ft | 20 kts | 322° |
| 2026-05-04 20:35 | -26.59839 | 153.08525 | 21 ft | 19 kts | 324° |
| 2026-05-04 20:35 | -26.59733 | 153.08436 | 20 ft | 19 kts | 323° |
| 2026-05-04 20:35 | -26.59630 | 153.08348 | 20 ft | 19 kts | 322° |
| 2026-05-04 20:36 | -26.59527 | 153.08260 | 20 ft | 19 kts | 322° |
| 2026-05-04 20:36 | -26.59430 | 153.08194 | 20 ft | 9 kts | 2° |
| 2026-05-04 20:36 | -26.59387 | 153.08229 | 21 ft | 3 kts | 51° |
| 2026-05-04 20:36 | -26.59386 | 153.08231 | 21 ft | 1 kts | 51° |
| 2026-05-04 20:37 | -26.59376 | 153.08244 | 20 ft | 4 kts | 51° |
| 2026-05-04 20:37 | -26.59349 | 153.08280 | 20 ft | 8 kts | 43° |
| 2026-05-04 20:37 | -26.59283 | 153.08285 | 20 ft | 12 kts | 331° |
| 2026-05-04 20:37 | -26.59206 | 153.08220 | 21 ft | 16 kts | 323° |
| 2026-05-04 20:38 | -26.59102 | 153.08132 | 21 ft | 21 kts | 322° |
| 2026-05-04 20:38 | -26.58975 | 153.08023 | 22 ft | 25 kts | 322° |
| 2026-05-04 20:38 | -26.58825 | 153.07895 | 24 ft | 29 kts | 323° |
| 2026-05-04 20:38 | -26.58659 | 153.07754 | 21 ft | 31 kts | 323° |
| 2026-05-04 20:39 | -26.58523 | 153.07639 | 21 ft | 20 kts | 322° |
| 2026-05-04 20:39 | -26.58460 | 153.07573 | 20 ft | 9 kts | 296° |
| 2026-05-04 20:39 | -26.58436 | 153.07507 | 21 ft | 9 kts | 291° |
| 2026-05-04 20:39 | -26.58400 | 153.07452 | 20 ft | 9 kts | 322° |
| 2026-05-04 20:40 | -26.58346 | 153.07453 | 21 ft | 9 kts | 41° |
| 2026-05-04 20:40 | -26.58353 | 153.07492 | 20 ft | 0 kts | 139° |
| 2026-05-04 20:40 | -26.58371 | 153.07509 | 21 ft | 16 kts | 141° |
| 2026-05-04 20:41 | -26.58649 | 153.07746 | 21 ft | 84 kts | 142° |
| 2026-05-04 20:41 | -26.59272 | 153.08278 | 20 ft | 139 kts | 143° |
| 2026-05-04 20:41 | -26.60139 | 153.09007 | 255 ft | 163 kts | 144° |
| 2026-05-04 20:41 | -26.61059 | 153.09794 | 849 ft | 166 kts | 143° |
| 2026-05-04 20:42 | -26.61968 | 153.10576 | 1550 ft | 164 kts | 143° |
| 2026-05-04 20:42 | -26.62896 | 153.11370 | 2037 ft | 178 kts | 143° |
| 2026-05-04 20:42 | -26.63958 | 153.12277 | 2267 ft | 203 kts | 142° |
| 2026-05-04 20:42 | -26.65034 | 153.13423 | 2439 ft | 223 kts | 131° |
| 2026-05-04 20:43 | -26.66096 | 153.14799 | 2685 ft | 244 kts | 130° |
| 2026-05-04 20:43 | -26.67219 | 153.16283 | 3246 ft | 253 kts | 130° |
| 2026-05-04 20:43 | -26.68367 | 153.17798 | 3977 ft | 254 kts | 130° |
| 2026-05-04 20:43 | -26.69514 | 153.19302 | 4716 ft | 257 kts | 130° |
| 2026-05-04 20:44 | -26.70682 | 153.20826 | 5298 ft | 264 kts | 130° |
| 2026-05-04 20:44 | -26.71906 | 153.22420 | 5880 ft | 272 kts | 130° |
| 2026-05-04 20:44 | -26.73145 | 153.24030 | 6579 ft | 276 kts | 131° |
| 2026-05-04 20:44 | -26.74411 | 153.25674 | 7194 ft | 281 kts | 131° |
| 2026-05-04 20:45 | -26.75699 | 153.27346 | 7854 ft | 286 kts | 131° |
| 2026-05-04 20:45 | -26.76995 | 153.29026 | 8516 ft | 290 kts | 132° |
| 2026-05-04 20:45 | -26.78324 | 153.30750 | 9209 ft | 295 kts | 132° |
| 2026-05-04 20:45 | -26.79671 | 153.32497 | 9951 ft | 299 kts | 132° |
| 2026-05-04 20:46 | -26.81051 | 153.34284 | 10451 ft | 310 kts | 133° |
| 2026-05-04 20:46 | -26.82811 | 153.35799 | 10567 ft | 332 kts | 159° |
| 2026-05-04 20:46 | -26.85117 | 153.36299 | 10744 ft | 348 kts | 181° |
| 2026-05-04 20:46 | -26.87611 | 153.36261 | 10900 ft | 367 kts | 183° |
| 2026-05-04 20:47 | -26.90236 | 153.36146 | 11026 ft | 385 kts | 184° |
| 2026-05-04 20:47 | -26.92931 | 153.36017 | 11189 ft | 399 kts | 184° |
| 2026-05-04 20:47 | -26.95731 | 153.35895 | 11548 ft | 405 kts | 184° |
| 2026-05-04 20:47 | -26.98560 | 153.35786 | 12005 ft | 409 kts | 184° |
| 2026-05-04 20:48 | -27.01424 | 153.35688 | 12470 ft | 413 kts | 184° |
| 2026-05-04 20:48 | -27.04310 | 153.35596 | 12922 ft | 417 kts | 184° |
| 2026-05-04 20:48 | -27.07221 | 153.35506 | 13365 ft | 421 kts | 184° |
| 2026-05-04 20:48 | -27.10170 | 153.35417 | 13810 ft | 425 kts | 184° |
| 2026-05-04 20:49 | -27.13142 | 153.35328 | 14211 ft | 429 kts | 184° |
| 2026-05-04 20:49 | -27.16130 | 153.35238 | 14734 ft | 429 kts | 184° |
| 2026-05-04 20:49 | -27.19091 | 153.35148 | 15196 ft | 432 kts | 184° |
| 2026-05-04 20:49 | -27.22145 | 153.35055 | 15614 ft | 435 kts | 184° |
| 2026-05-04 20:50 | -27.25141 | 153.34964 | 16029 ft | 438 kts | 185° |
| 2026-05-04 20:50 | -27.28201 | 153.34871 | 16455 ft | 441 kts | 185° |
| 2026-05-04 20:50 | -27.31278 | 153.34777 | 16874 ft | 443 kts | 185° |
| 2026-05-04 20:50 | -27.34361 | 153.34587 | 17265 ft | 443 kts | 191° |
| 2026-05-04 20:51 | -27.37348 | 153.33840 | 17651 ft | 441 kts | 202° |
| 2026-05-04 20:51 | -27.40189 | 153.32558 | 18082 ft | 438 kts | 210° |
| 2026-05-04 20:51 | -27.42823 | 153.30856 | 18505 ft | 436 kts | 216° |
| 2026-05-04 20:51 | -27.45410 | 153.29059 | 18871 ft | 437 kts | 216° |
| 2026-05-04 20:52 | -27.48007 | 153.27276 | 19187 ft | 440 kts | 216° |
| 2026-05-04 20:52 | -27.50633 | 153.25490 | 19503 ft | 442 kts | 216° |
| 2026-05-04 20:52 | -27.53281 | 153.23698 | 19834 ft | 444 kts | 216° |
| 2026-05-04 20:52 | -27.55936 | 153.21906 | 20162 ft | 446 kts | 216° |
| 2026-05-04 20:53 | -27.58602 | 153.20107 | 20488 ft | 447 kts | 216° |
| 2026-05-04 20:53 | -27.61278 | 153.18301 | 20799 ft | 449 kts | 216° |
| 2026-05-04 20:53 | -27.63963 | 153.16486 | 21110 ft | 451 kts | 216° |
| 2026-05-04 20:53 | -27.66659 | 153.14663 | 21406 ft | 452 kts | 217° |
| 2026-05-04 20:54 | -27.69364 | 153.12832 | 21708 ft | 454 kts | 217° |
| 2026-05-04 20:54 | -27.71162 | 153.11615 | 21895 ft | 455 kts | 217° |
| 2026-05-04 20:54 | -27.74804 | 153.09146 | 22253 ft | 458 kts | 217° |
| 2026-05-04 20:54 | -27.76618 | 153.07916 | 22433 ft | 459 kts | 217° |
| 2026-05-04 20:55 | -27.80247 | 153.05455 | 22787 ft | 461 kts | 217° |
| 2026-05-04 20:55 | -27.83082 | 153.03709 | 23025 ft | 469 kts | 211° |
| 2026-05-04 20:55 | -27.86133 | 153.02328 | 23279 ft | 474 kts | 207° |
| 2026-05-04 20:55 | -27.88232 | 153.01450 | 23436 ft | 476 kts | 207° |
| 2026-05-04 20:56 | -27.91304 | 153.00176 | 23676 ft | 477 kts | 207° |
| 2026-05-04 20:56 | -27.94424 | 152.98863 | 23866 ft | 479 kts | 207° |
| 2026-05-04 20:56 | -27.97539 | 152.97525 | 24070 ft | 479 kts | 208° |
| 2026-05-04 20:56 | -28.00655 | 152.96166 | 24275 ft | 480 kts | 208° |
| 2026-05-04 20:57 | -28.03772 | 152.94797 | 24471 ft | 481 kts | 208° |
| 2026-05-04 20:57 | -28.06905 | 152.93420 | 24662 ft | 482 kts | 208° |
| 2026-05-04 20:57 | -28.10039 | 152.92042 | 24849 ft | 483 kts | 208° |
| 2026-05-04 20:57 | -28.13176 | 152.90654 | 25063 ft | 484 kts | 209° |
| 2026-05-04 20:58 | -28.16323 | 152.89253 | 25250 ft | 485 kts | 209° |
| 2026-05-04 20:58 | -28.19429 | 152.87867 | 25440 ft | 486 kts | 209° |
| 2026-05-04 20:58 | -28.22576 | 152.86462 | 25624 ft | 487 kts | 209° |
| 2026-05-04 20:58 | -28.25742 | 152.85048 | 25797 ft | 488 kts | 209° |
| 2026-05-04 20:59 | -28.28910 | 152.83633 | 25958 ft | 489 kts | 209° |
| 2026-05-04 20:59 | -28.32082 | 152.82216 | 26112 ft | 490 kts | 209° |
| 2026-05-04 20:59 | -28.35264 | 152.80794 | 26257 ft | 491 kts | 209° |
| 2026-05-04 20:59 | -28.38447 | 152.79373 | 26358 ft | 492 kts | 209° |
| 2026-05-04 21:00 | -28.41633 | 152.77949 | 26503 ft | 492 kts | 209° |
| 2026-05-04 21:00 | -28.44816 | 152.76525 | 26690 ft | 491 kts | 210° |
| 2026-05-04 21:00 | -28.47995 | 152.75101 | 26908 ft | 491 kts | 210° |
| 2026-05-04 21:00 | -28.51130 | 152.73697 | 27113 ft | 490 kts | 210° |
| 2026-05-04 21:01 | -28.54299 | 152.72276 | 27345 ft | 488 kts | 210° |
| 2026-05-04 21:01 | -28.57466 | 152.70855 | 27571 ft | 488 kts | 210° |
| 2026-05-04 21:01 | -28.60628 | 152.69435 | 27839 ft | 487 kts | 210° |
| 2026-05-04 21:01 | -28.63768 | 152.68025 | 28155 ft | 484 kts | 210° |
| 2026-05-04 21:02 | -28.66900 | 152.66617 | 28463 ft | 482 kts | 210° |
| 2026-05-04 21:02 | -28.70025 | 152.65210 | 28728 ft | 482 kts | 211° |
| 2026-05-04 21:02 | -28.73145 | 152.63804 | 28941 ft | 482 kts | 211° |
| 2026-05-04 21:02 | -28.76221 | 152.62417 | 29200 ft | 481 kts | 211° |
| 2026-05-04 21:03 | -28.79334 | 152.61013 | 29502 ft | 480 kts | 211° |
| 2026-05-04 21:03 | -28.82435 | 152.59616 | 29834 ft | 478 kts | 211° |
| 2026-05-04 21:03 | -28.85509 | 152.58199 | 30151 ft | 474 kts | 213° |
| 2026-05-04 21:03 | -28.88469 | 152.56586 | 30391 ft | 469 kts | 216° |
| 2026-05-04 21:04 | -28.91355 | 152.54871 | 30651 ft | 466 kts | 217° |
| 2026-05-04 21:04 | -28.94206 | 152.53125 | 30946 ft | 464 kts | 218° |
| 2026-05-04 21:04 | -28.97040 | 152.51382 | 31235 ft | 462 kts | 218° |
| 2026-05-04 21:04 | -28.99876 | 152.49652 | 31476 ft | 461 kts | 218° |
| 2026-05-04 21:05 | -29.02708 | 152.47939 | 31703 ft | 461 kts | 218° |
| 2026-05-04 21:05 | -29.05551 | 152.46232 | 31963 ft | 460 kts | 217° |
| 2026-05-04 21:05 | -29.08355 | 152.44558 | 32257 ft | 459 kts | 218° |
| 2026-05-04 21:05 | -29.11183 | 152.42873 | 32567 ft | 457 kts | 218° |
| 2026-05-04 21:06 | -29.13991 | 152.41200 | 32862 ft | 455 kts | 218° |
| 2026-05-04 21:06 | -29.16793 | 152.39530 | 33174 ft | 453 kts | 218° |
| 2026-05-04 21:06 | -29.19581 | 152.37866 | 33469 ft | 451 kts | 218° |
| 2026-05-04 21:06 | -29.22365 | 152.36202 | 33773 ft | 450 kts | 218° |
| 2026-05-04 21:07 | -29.25131 | 152.34549 | 34052 ft | 448 kts | 218° |
| 2026-05-04 21:07 | -29.27892 | 152.32897 | 34317 ft | 447 kts | 218° |
| 2026-05-04 21:07 | -29.30650 | 152.31244 | 34534 ft | 446 kts | 219° |
| 2026-05-04 21:07 | -29.33400 | 152.29594 | 34714 ft | 446 kts | 219° |
| 2026-05-04 21:08 | -29.36150 | 152.27943 | 34872 ft | 447 kts | 219° |
| 2026-05-04 21:08 | -29.38906 | 152.26288 | 35060 ft | 447 kts | 219° |
| 2026-05-04 21:08 | -29.41662 | 152.24633 | 35258 ft | 447 kts | 219° |
| 2026-05-04 21:08 | -29.44422 | 152.22975 | 35436 ft | 447 kts | 220° |
| 2026-05-04 21:09 | -29.47178 | 152.21318 | 35554 ft | 448 kts | 219° |
| 2026-05-04 21:09 | -29.49898 | 152.19684 | 35768 ft | 446 kts | 220° |
| 2026-05-04 21:09 | -29.52687 | 152.18006 | 35944 ft | 447 kts | 220° |
| 2026-05-04 21:09 | -29.55414 | 152.16362 | 36069 ft | 448 kts | 220° |
| 2026-05-04 21:10 | -29.60953 | 152.13022 | 36157 ft | 450 kts | 220° |
| 2026-05-04 21:10 | -29.66491 | 152.09684 | 36165 ft | 447 kts | 220° |
| 2026-05-04 21:11 | -29.72282 | 152.06808 | 36164 ft | 469 kts | 207° |
| 2026-05-04 21:11 | -29.78706 | 152.05129 | 36178 ft | 475 kts | 205° |
| 2026-05-04 21:12 | -29.85165 | 152.03538 | 36175 ft | 474 kts | 206° |
| 2026-05-04 21:12 | -29.91556 | 152.01907 | 36166 ft | 473 kts | 206° |
| 2026-05-04 21:13 | -29.97969 | 152.00231 | 36187 ft | 472 kts | 206° |
| 2026-05-04 21:13 | -30.04381 | 151.98546 | 36176 ft | 472 kts | 206° |
| 2026-05-04 21:14 | -30.10788 | 151.96862 | 36182 ft | 472 kts | 206° |
| 2026-05-04 21:14 | -30.17167 | 151.95186 | 36174 ft | 472 kts | 206° |
| 2026-05-04 21:15 | -30.23582 | 151.93499 | 36184 ft | 472 kts | 206° |
| 2026-05-04 21:15 | -30.29992 | 151.91809 | 36185 ft | 472 kts | 207° |
| 2026-05-04 21:16 | -30.36150 | 151.89622 | 36187 ft | 454 kts | 216° |
| 2026-05-04 21:16 | -30.41938 | 151.86857 | 36181 ft | 452 kts | 217° |
| 2026-05-04 21:17 | -30.47755 | 151.84044 | 36184 ft | 454 kts | 217° |
| 2026-05-04 21:17 | -30.53602 | 151.81275 | 36176 ft | 455 kts | 216° |
| 2026-05-04 21:18 | -30.59442 | 151.78543 | 36174 ft | 455 kts | 216° |
| 2026-05-04 21:18 | -30.65313 | 151.75801 | 36168 ft | 455 kts | 216° |
| 2026-05-04 21:19 | -30.71187 | 151.73050 | 36186 ft | 455 kts | 216° |
| 2026-05-04 21:19 | -30.77067 | 151.70292 | 36167 ft | 456 kts | 216° |
| 2026-05-04 21:20 | -30.82946 | 151.67530 | 36165 ft | 456 kts | 216° |
| 2026-05-04 21:20 | -30.88832 | 151.64762 | 36158 ft | 455 kts | 216° |
| 2026-05-04 21:21 | -30.94677 | 151.62009 | 36152 ft | 455 kts | 216° |
| 2026-05-04 21:21 | -31.00568 | 151.59229 | 36170 ft | 456 kts | 216° |
| 2026-05-04 21:22 | -31.06462 | 151.56445 | 36157 ft | 457 kts | 216° |
| 2026-05-04 21:22 | -31.12362 | 151.53655 | 36188 ft | 457 kts | 216° |
| 2026-05-04 21:23 | -31.18276 | 151.50854 | 36166 ft | 458 kts | 216° |
| 2026-05-04 21:23 | -31.24154 | 151.48067 | 36159 ft | 459 kts | 216° |
| 2026-05-04 21:24 | -31.30076 | 151.45256 | 36152 ft | 459 kts | 216° |
| 2026-05-04 21:24 | -31.35993 | 151.42442 | 36166 ft | 459 kts | 216° |
| 2026-05-04 21:25 | -31.41940 | 151.39661 | 36155 ft | 461 kts | 215° |
| 2026-05-04 21:25 | -31.47948 | 151.36999 | 36147 ft | 462 kts | 214° |
| 2026-05-04 21:26 | -31.53960 | 151.34349 | 36146 ft | 461 kts | 214° |
| 2026-05-04 21:26 | -31.59975 | 151.31669 | 36146 ft | 462 kts | 214° |
| 2026-05-04 21:27 | -31.65993 | 151.28975 | 36148 ft | 463 kts | 214° |
| 2026-05-04 21:27 | -31.71994 | 151.26285 | 36138 ft | 463 kts | 214° |
| 2026-05-04 21:28 | -31.78029 | 151.23578 | 36185 ft | 463 kts | 213° |
| 2026-05-04 21:28 | -31.84061 | 151.20866 | 36153 ft | 464 kts | 213° |
| 2026-05-04 21:29 | -31.90059 | 151.18167 | 36139 ft | 464 kts | 213° |
| 2026-05-04 21:29 | -31.96090 | 151.15452 | 36150 ft | 464 kts | 213° |
| 2026-05-04 21:30 | -32.02147 | 151.12735 | 36158 ft | 466 kts | 212° |
| 2026-05-04 21:30 | -32.08211 | 151.10016 | 36138 ft | 466 kts | 212° |
| 2026-05-04 21:31 | -32.17326 | 151.05920 | 36149 ft | 467 kts | 212° |
| 2026-05-04 21:32 | -32.23367 | 151.03199 | 36157 ft | 468 kts | 211° |
| 2026-05-04 21:32 | -32.29451 | 151.00456 | 36015 ft | 468 kts | 211° |
| 2026-05-04 21:32 | -32.32489 | 150.99085 | 35531 ft | 464 kts | 211° |
| 2026-05-04 21:33 | -32.35517 | 150.97717 | 34767 ft | 466 kts | 211° |
| 2026-05-04 21:33 | -32.38550 | 150.96344 | 34062 ft | 466 kts | 211° |
| 2026-05-04 21:33 | -32.41588 | 150.94967 | 33242 ft | 467 kts | 210° |
| 2026-05-04 21:33 | -32.44596 | 150.93605 | 32485 ft | 467 kts | 210° |
| 2026-05-04 21:34 | -32.47726 | 150.92415 | 31688 ft | 478 kts | 201° |
| 2026-05-04 21:34 | -32.51053 | 150.91827 | 30902 ft | 490 kts | 191° |
| 2026-05-04 21:34 | -32.54511 | 150.91852 | 30085 ft | 501 kts | 181° |
| 2026-05-04 21:34 | -32.57992 | 150.92428 | 29100 ft | 506 kts | 177° |
| 2026-05-04 21:35 | -32.61475 | 150.93132 | 28121 ft | 507 kts | 176° |
| 2026-05-04 21:35 | -32.64927 | 150.93839 | 27163 ft | 507 kts | 176° |
| 2026-05-04 21:35 | -32.68412 | 150.94520 | 26173 ft | 508 kts | 176° |
| 2026-05-04 21:35 | -32.71901 | 150.95165 | 25363 ft | 505 kts | 177° |
| 2026-05-04 21:36 | -32.75363 | 150.95788 | 24649 ft | 499 kts | 177° |
| 2026-05-04 21:36 | -32.78788 | 150.96402 | 23926 ft | 495 kts | 177° |
| 2026-05-04 21:36 | -32.82178 | 150.97006 | 23090 ft | 492 kts | 176° |
| 2026-05-04 21:36 | -32.85551 | 150.97605 | 22311 ft | 486 kts | 176° |
| 2026-05-04 21:37 | -32.88833 | 150.98188 | 21602 ft | 480 kts | 176° |
| 2026-05-04 21:37 | -32.92121 | 150.98771 | 20920 ft | 474 kts | 176° |
| 2026-05-04 21:37 | -32.95367 | 150.99347 | 20212 ft | 469 kts | 176° |
| 2026-05-04 21:37 | -32.98583 | 150.99918 | 19519 ft | 464 kts | 176° |
| 2026-05-04 21:38 | -33.01758 | 151.00482 | 18810 ft | 460 kts | 176° |
| 2026-05-04 21:38 | -33.04931 | 151.01047 | 18055 ft | 457 kts | 176° |
| 2026-05-04 21:38 | -33.08062 | 151.01604 | 17308 ft | 451 kts | 176° |
| 2026-05-04 21:38 | -33.11150 | 151.02155 | 16599 ft | 446 kts | 176° |
| 2026-05-04 21:39 | -33.14202 | 151.02700 | 15913 ft | 440 kts | 176° |
| 2026-05-04 21:39 | -33.17213 | 151.03237 | 15246 ft | 435 kts | 176° |
| 2026-05-04 21:39 | -33.20158 | 151.03763 | 14589 ft | 430 kts | 175° |
| 2026-05-04 21:39 | -33.23103 | 151.04289 | 13961 ft | 425 kts | 175° |
| 2026-05-04 21:40 | -33.26004 | 151.04822 | 13189 ft | 422 kts | 175° |
| 2026-05-04 21:40 | -33.28884 | 151.05377 | 12488 ft | 417 kts | 174° |
| 2026-05-04 21:40 | -33.31767 | 151.05937 | 11821 ft | 412 kts | 175° |
| 2026-05-04 21:40 | -33.34543 | 151.06474 | 11380 ft | 403 kts | 175° |
| 2026-05-04 21:41 | -33.37254 | 151.06998 | 11200 ft | 387 kts | 175° |
| 2026-05-04 21:41 | -33.39865 | 151.07501 | 11028 ft | 374 kts | 175° |
| 2026-05-04 21:41 | -33.42399 | 151.07989 | 10873 ft | 361 kts | 175° |
| 2026-05-04 21:41 | -33.44843 | 151.08459 | 10682 ft | 351 kts | 175° |
| 2026-05-04 21:42 | -33.47233 | 151.08917 | 10489 ft | 343 kts | 175° |
| 2026-05-04 21:42 | -33.49557 | 151.09363 | 10329 ft | 333 kts | 175° |
| 2026-05-04 21:42 | -33.51815 | 151.09796 | 10193 ft | 324 kts | 176° |
| 2026-05-04 21:42 | -33.53278 | 151.10077 | 10099 ft | 318 kts | 176° |
| 2026-05-04 21:43 | -33.55438 | 151.10492 | 9971 ft | 309 kts | 176° |
| 2026-05-04 21:43 | -33.57524 | 151.10893 | 9633 ft | 307 kts | 176° |
| 2026-05-04 21:43 | -33.59636 | 151.11297 | 9300 ft | 307 kts | 176° |
| 2026-05-04 21:43 | -33.61740 | 151.11702 | 8991 ft | 305 kts | 175° |
| 2026-05-04 21:44 | -33.63815 | 151.12112 | 8808 ft | 298 kts | 175° |
| 2026-05-04 21:44 | -33.65843 | 151.12513 | 8634 ft | 293 kts | 175° |
| 2026-05-04 21:44 | -33.67833 | 151.12907 | 8455 ft | 288 kts | 175° |
| 2026-05-04 21:44 | -33.69800 | 151.13296 | 8288 ft | 285 kts | 175° |
| 2026-05-04 21:45 | -33.71755 | 151.13678 | 8118 ft | 284 kts | 175° |
| 2026-05-04 21:45 | -33.73676 | 151.14049 | 7959 ft | 282 kts | 175° |
| 2026-05-04 21:45 | -33.75613 | 151.14423 | 7783 ft | 282 kts | 175° |
| 2026-05-04 21:45 | -33.77548 | 151.14798 | 7622 ft | 281 kts | 175° |
| 2026-05-04 21:46 | -33.79474 | 151.15171 | 7457 ft | 280 kts | 175° |
| 2026-05-04 21:46 | -33.81398 | 151.15418 | 7271 ft | 275 kts | 189° |
| 2026-05-04 21:46 | -33.83240 | 151.14966 | 7138 ft | 268 kts | 199° |
| 2026-05-04 21:46 | -33.85052 | 151.14409 | 6975 ft | 268 kts | 199° |
| 2026-05-04 21:47 | -33.86863 | 151.13861 | 6815 ft | 268 kts | 199° |
| 2026-05-04 21:47 | -33.88669 | 151.13326 | 6668 ft | 267 kts | 198° |
| 2026-05-04 21:47 | -33.90477 | 151.12798 | 6495 ft | 266 kts | 197° |
| 2026-05-04 21:47 | -33.92279 | 151.12276 | 6334 ft | 265 kts | 197° |
| 2026-05-04 21:48 | -33.94044 | 151.11767 | 6172 ft | 263 kts | 197° |
| 2026-05-04 21:48 | -33.95826 | 151.11253 | 6012 ft | 262 kts | 197° |
| 2026-05-04 21:48 | -33.97589 | 151.10744 | 5856 ft | 260 kts | 197° |
| 2026-05-04 21:48 | -33.99333 | 151.10240 | 5697 ft | 258 kts | 197° |
| 2026-05-04 21:49 | -34.01070 | 151.09738 | 5550 ft | 256 kts | 196° |
| 2026-05-04 21:49 | -34.02794 | 151.09240 | 5399 ft | 254 kts | 196° |
| 2026-05-04 21:49 | -34.04509 | 151.08744 | 5251 ft | 252 kts | 196° |
| 2026-05-04 21:49 | -34.06209 | 151.08253 | 5092 ft | 250 kts | 196° |
| 2026-05-04 21:50 | -34.07908 | 151.07825 | 5007 ft | 248 kts | 186° |
| 2026-05-04 21:50 | -34.09624 | 151.08095 | 4965 ft | 250 kts | 170° |
| 2026-05-04 21:50 | -34.11312 | 151.08559 | 4833 ft | 252 kts | 171° |
| 2026-05-04 21:50 | -34.13020 | 151.09016 | 4675 ft | 250 kts | 171° |
| 2026-05-04 21:51 | -34.14717 | 151.09463 | 4524 ft | 248 kts | 171° |
| 2026-05-04 21:51 | -34.16401 | 151.09903 | 4385 ft | 247 kts | 171° |
| 2026-05-04 21:51 | -34.18079 | 151.10339 | 4231 ft | 245 kts | 171° |
| 2026-05-04 21:51 | -34.19744 | 151.10782 | 4093 ft | 244 kts | 168° |
| 2026-05-04 21:52 | -34.21233 | 151.11778 | 3964 ft | 251 kts | 139° |
| 2026-05-04 21:52 | -34.22196 | 151.13574 | 3842 ft | 262 kts | 113° |
| 2026-05-04 21:52 | -34.22434 | 151.15772 | 3697 ft | 272 kts | 85° |
| 2026-05-04 21:52 | -34.21799 | 151.17957 | 3557 ft | 278 kts | 57° |
| 2026-05-04 21:53 | -34.20569 | 151.19711 | 3406 ft | 275 kts | 43° |
| 2026-05-04 21:53 | -34.19205 | 151.21298 | 3227 ft | 270 kts | 42° |
| 2026-05-04 21:53 | -34.17789 | 151.22738 | 3063 ft | 261 kts | 25° |
| 2026-05-04 21:53 | -34.16128 | 151.23171 | 3054 ft | 230 kts | 349° |
| 2026-05-04 21:54 | -34.14619 | 151.22867 | 3014 ft | 211 kts | 339° |
| 2026-05-04 21:54 | -34.13231 | 151.22473 | 3004 ft | 202 kts | 339° |
| 2026-05-04 21:54 | -34.11872 | 151.22097 | 3016 ft | 199 kts | 341° |
| 2026-05-04 21:54 | -34.10541 | 151.21745 | 2840 ft | 197 kts | 340° |
| 2026-05-04 21:55 | -34.09205 | 151.21396 | 2582 ft | 195 kts | 340° |
| 2026-05-04 21:55 | -34.07893 | 151.21054 | 2338 ft | 192 kts | 340° |
| 2026-05-04 21:55 | -34.06603 | 151.20718 | 2063 ft | 185 kts | 340° |
| 2026-05-04 21:55 | -34.05377 | 151.20400 | 1830 ft | 175 kts | 340° |
| 2026-05-04 21:56 | -34.04222 | 151.20099 | 1585 ft | 164 kts | 340° |
| 2026-05-04 21:56 | -34.03159 | 151.19822 | 1390 ft | 151 kts | 340° |
| 2026-05-04 21:56 | -34.02153 | 151.19559 | 1197 ft | 147 kts | 340° |
| 2026-05-04 21:56 | -34.01140 | 151.19293 | 993 ft | 150 kts | 340° |
| 2026-05-04 21:57 | -34.00108 | 151.19014 | 823 ft | 151 kts | 343° |
| 2026-05-04 21:57 | -33.99087 | 151.18754 | 621 ft | 148 kts | 343° |
| 2026-05-04 21:57 | -33.98101 | 151.18493 | 399 ft | 145 kts | 345° |
| 2026-05-04 21:57 | -33.97119 | 151.18232 | 219 ft | 145 kts | 348° |
| 2026-05-04 21:58 | -33.96133 | 151.17985 | 39 ft | 144 kts | 348° |
| 2026-05-04 21:58 | -33.95240 | 151.17755 | 28 ft | 115 kts | 347° |
| 2026-05-04 21:58 | -33.94573 | 151.17584 | 29 ft | 80 kts | 347° |
| 2026-05-04 21:58 | -33.94145 | 151.17474 | 27 ft | 46 kts | 348° |
| 2026-05-04 21:59 | -33.93953 | 151.17428 | 27 ft | 11 kts | 5° |
| 2026-05-04 21:59 | -33.93942 | 151.17432 | 30 ft | 0 kts | 23° |
| 2026-05-04 21:59 | -33.93927 | 151.17445 | 26 ft | 6 kts | 43° |
| 2026-05-04 21:59 | -33.93902 | 151.17516 | 27 ft | 12 kts | 73° |
| 2026-05-04 22:00 | -33.93880 | 151.17602 | 28 ft | 13 kts | 73° |
| 2026-05-04 22:00 | -33.93860 | 151.17693 | 28 ft | 9 kts | 74° |
| 2026-05-04 22:00 | -33.93836 | 151.17790 | 29 ft | 14 kts | 73° |
| 2026-05-04 22:00 | -33.93827 | 151.17830 | 29 ft | 3 kts | 75° |
| 2026-05-04 22:01 | -33.93820 | 151.17859 | 29 ft | 4 kts | 75° |
| 2026-05-04 22:01 | -33.93810 | 151.17903 | 29 ft | 7 kts | 73° |
| 2026-05-04 22:01 | -33.93793 | 151.17974 | 29 ft | 10 kts | 74° |
| 2026-05-04 22:01 | -33.93777 | 151.18039 | 29 ft | 7 kts | 67° |
| 2026-05-04 22:02 | -33.93730 | 151.18063 | 29 ft | 9 kts | 356° |
| 2026-05-04 22:02 | -33.93668 | 151.18051 | 29 ft | 8 kts | 357° |
| 2026-05-04 22:02 | -33.93622 | 151.18052 | 29 ft | 6 kts | 4° |
| 2026-05-04 22:02 | -33.93586 | 151.18057 | 29 ft | 3 kts | 9° |
| 2026-05-04 22:03 | -33.93568 | 151.18051 | 29 ft | 3 kts | 318° |
| 2026-05-04 22:03 | -33.93562 | 151.18028 | 29 ft | 3 kts | 284° |
| 2026-05-04 22:03 | -33.93558 | 151.18005 | 29 ft | 2 kts | 281° |
| 2026-05-04 22:03 | -33.93557 | 151.17997 | 29 ft | 1 kts | 280° |
| 2026-05-04 22:04 | -33.93556 | 151.17991 | 29 ft | 0 kts | 280° |